Data for 11/20/2005

Time Sea-Level Adjusted Pressure Absolute Pressure Temperature Relative Humidity Dew Point   
(mb) (inHg) (mb) (inHg) (C) (F) (%) (C) (F)
00:05 1027 30.33 857 25.31 1 33.8 64 -5.1 22.8
00:10 1027 30.33 856 25.28 0.8 33.4 65 -5 23
00:15 1027 30.33 857 25.31 0.8 33.4 63 -5.4 22.3
00:20 1027 30.33 856 25.28 1 33.8 61 -5.6 21.9
00:25 1027 30.33 856 25.28 1.1 34 60 -5.7 21.7
00:30 1027 30.33 856 25.28 1.1 33.9 61 -5.7 21.7
00:35 1027 30.33 856 25.28 1 33.8 61 -5.8 21.6
00:40 1027 30.33 856 25.28 0.9 33.7 61 -5.7 21.7
00:45 1027 30.33 856 25.28 0.7 33.3 63 -5.5 22.1
00:50 1027 30.33 857 25.31 0.7 33.3 63 -5.6 21.9
00:55 1027 30.33 857 25.31 0.6 33 65 -5.3 22.5
01:00 1027 30.33 857 25.31 0.7 33.2 65 -5.2 22.7
01:05 1027 30.33 857 25.31 0.7 33.2 65 -5.1 22.8
01:10 1027 30.33 857 25.31 0.2 32.3 67 -5.3 22.5
01:15 1027 30.33 857 25.31 -0.4 31.3 68 -5.6 22
01:20 1027 30.33 857 25.31 -0.5 31.1 67 -5.9 21.4
01:25 1027 30.33 857 25.31 0.3 32.6 62 -6 21.1
01:30 1028 30.36 857 25.31 1.2 34.2 61 -5.6 22
01:35 1028 30.36 857 25.31 1.3 34.3 60 -5.6 21.9
01:40 1028 30.36 857 25.31 1.2 34.2 62 -5.2 22.6
01:45 1028 30.36 857 25.31 1.4 34.4 62 -5.1 22.8
01:50 1028 30.36 857 25.31 0.7 33.2 65 -5.1 22.9
01:55 1028 30.36 857 25.31 -0.1 31.8 70 -5 23
02:00 1027 30.33 857 25.31 -0.2 31.6 69 -5.2 22.7
02:05 1027 30.33 857 25.31 -0.4 31.4 70 -5.2 22.7
02:10 1027 30.33 857 25.31 -0.1 31.9 69 -5.1 22.8
02:15 1027 30.33 856 25.28 -0 31.9 67 -5.4 22.4
02:20 1027 30.33 856 25.28 0.6 33.1 66 -5.1 22.8
02:25 1027 30.33 856 25.28 0.3 32.5 67 -5.1 22.8
02:30 1027 30.33 856 25.28 0.4 32.8 64 -5.5 22.1
02:35 1027 30.33 857 25.31 0.2 32.4 66 -5.4 22.2
02:40 1027 30.33 857 25.31 0.2 32.3 67 -5.3 22.5
02:45 1027 30.33 857 25.31 0.8 33.4 64 -5.4 22.3
02:50 1027 30.33 856 25.28 0.6 33 63 -5.6 22
02:55 1027 30.33 856 25.28 0.4 32.8 64 -5.6 22
03:00 1027 30.33 856 25.28 0.5 32.9 64 -5.6 21.9
03:05 1027 30.33 856 25.28 -0 32 67 -5.4 22.3
03:10 1027 30.33 856 25.28 -0.4 31.3 68 -5.5 22.1
03:15 1027 30.33 856 25.28 -0.4 31.3 68 -5.6 21.9
03:20 1027 30.33 856 25.28 -0.4 31.4 68 -5.5 22
03:25 1027 30.33 856 25.28 0.1 32.1 66 -5.5 22.1
03:30 1027 30.33 856 25.28 0 32.1 66 -5.6 22
03:35 1027 30.33 856 25.28 -0 32 65 -5.8 21.5
03:40 1027 30.33 856 25.28 -0.4 31.3 71 -5.1 22.8
03:45 1027 30.33 856 25.28 -0.9 30.3 72 -5.3 22.4
03:50 1027 30.33 856 25.28 -1 30.2 73 -5.3 22.4
03:55 1027 30.33 856 25.28 -0.8 30.5 73 -5.1 22.8
04:00 1027 30.33 856 25.28 -0.8 30.6 73 -5.1 22.9
04:05 1027 30.33 856 25.28 -0.6 30.9 72 -5 23
04:10 1027 30.33 856 25.28 -0.3 31.5 70 -5.1 22.9
04:15 1027 30.33 856 25.28 -0.4 31.3 69 -5.5 22.1
04:20 1027 30.33 856 25.28 -0.7 30.8 70 -5.5 22.1
04:25 1027 30.33 856 25.28 -1 30.3 72 -5.4 22.3
04:30 1027 30.33 856 25.28 -1.1 29.9 72 -5.6 22
04:35 1027 30.33 856 25.28 -1 30.1 72 -5.5 22.1
04:40 1027 30.33 856 25.28 -1 30.2 71 -5.5 22
04:45 1027 30.33 856 25.28 -1 30.2 72 -5.5 22.1
04:50 1027 30.33 856 25.28 -0.7 30.7 71 -5.4 22.2
04:55 1027 30.33 856 25.28 -0.1 31.8 68 -5.3 22.5
05:00 1027 30.33 856 25.28 0.2 32.4 67 -5.2 22.7
05:05 1027 30.33 856 25.28 0.4 32.7 66 -5.2 22.6
05:10 1027 30.33 856 25.28 0.1 32.2 67 -5.2 22.6
05:15 1027 30.33 856 25.28 -0.1 31.8 68 -5.3 22.4
05:20 1027 30.33 856 25.28 -0.1 31.9 68 -5.2 22.6
05:25 1027 30.33 856 25.28 -0.2 31.6 69 -5.3 22.5
05:30 1027 30.33 856 25.28 -0.1 31.8 67 -5.4 22.3
05:35 1027 30.33 856 25.28 -0.1 31.7 68 -5.3 22.5
05:40 1027 30.33 856 25.28 -0.1 31.8 68 -5.2 22.6
05:45 1027 30.33 856 25.28 -0.1 31.7 69 -5.3 22.5
05:50 1027 30.33 856 25.28 -0.1 31.8 67 -5.4 22.2
05:55 1027 30.33 856 25.28 -0.7 30.8 70 -5.4 22.3
06:00 1027 30.33 856 25.28 -0.7 30.7 70 -5.5 22.1
06:05 1027 30.33 856 25.28 -0.7 30.7 70 -5.6 22
06:10 1027 30.33 856 25.28 -0.5 31.1 69 -5.5 22.1
06:15 1027 30.33 856 25.28 -0.6 30.9 71 -5.2 22.6
06:20 1027 30.33 856 25.28 -0.7 30.7 72 -5.2 22.6
06:25 1027 30.33 856 25.28 -0.6 31 71 -5.2 22.6
06:30 1027 30.33 856 25.28 -0.5 31.1 71 -5.1 22.7
06:35 1027 30.33 856 25.28 -0.3 31.4 71 -5 22.9
06:40 1027 30.33 856 25.28 0.2 32.3 70 -4.8 23.4
06:45 1027 30.33 857 25.31 -0.1 31.8 70 -5 23.1
06:50 1027 30.33 857 25.31 -0.3 31.4 71 -5 23
06:55 1027 30.33 856 25.28 -0.8 30.6 72 -5.3 22.5
07:00 1027 30.33 856 25.28 -1.2 29.8 74 -5.4 22.3
07:05 1027 30.33 856 25.28 -2 28.4 77 -5.5 22.2
07:10 1027 30.33 856 25.28 -1.9 28.5 75 -5.7 21.7
07:15 1027 30.33 856 25.28 -1.3 29.7 75 -5.2 22.6
07:20 1027 30.33 856 25.28 -0.8 30.6 72 -5.2 22.7
07:25 1027 30.33 856 25.28 -1 30.1 74 -5.2 22.7
07:30 1027 30.33 856 25.28 -1.3 29.6 73 -5.5 22
07:35 1027 30.33 856 25.28 -1.1 30.1 72 -5.6 22
07:40 1027 30.33 856 25.28 -1.2 29.9 73 -5.4 22.2
07:45 1027 30.33 856 25.28 -1.2 29.8 72 -5.6 21.8
07:50 1027 30.33 856 25.28 -1.1 30 72 -5.5 22
07:55 1027 30.33 856 25.28 -1.4 29.5 73 -5.5 22
08:00 1027 30.33 856 25.28 -1.3 29.6 73 -5.6 21.9
08:05 1027 30.33 856 25.28 -1 30.2 71 -5.7 21.8
08:10 1027 30.33 856 25.28 -0.5 31.2 69 -5.5 22
08:15 1027 30.33 856 25.28 0.1 32.2 67 -5.4 22.3
08:20 1027 30.33 856 25.28 0.4 32.8 65 -5.4 22.3
08:25 1027 30.33 856 25.28 0.8 33.4 64 -5.3 22.4
08:30 1027 30.33 856 25.28 0.5 33 66 -5.2 22.7
08:35 1027 30.33 856 25.28 -0.1 31.9 67 -5.4 22.3
08:40 1027 30.33 856 25.28 0.3 32.6 65 -5.4 22.3
08:45 1027 30.33 856 25.28 1 33.7 63 -5.3 22.5
08:50 1027 30.33 856 25.28 1.5 34.7 61 -5.1 22.8
08:55 1027 30.33 856 25.28 1.5 34.6 62 -5 23.1
09:00 1027 30.33 856 25.28 1.4 34.6 63 -4.9 23.1
09:05 1027 30.33 856 25.28 1.5 34.7 63 -4.9 23.3
09:10 1027 30.33 856 25.28 1.6 34.9 62 -4.8 23.3
09:15 1027 30.33 856 25.28 2 35.6 60 -4.9 23.3
09:20 1027 30.33 856 25.28 2.7 36.8 57 -5 23
09:25 1027 30.33 856 25.28 3.3 38 55 -4.8 23.4
09:30 1027 30.33 856 25.28 3.7 38.6 53 -5 23
09:35 1027 30.33 856 25.28 4.3 39.8 52 -4.6 23.8
09:40 1027 30.33 856 25.28 4.8 40.7 50 -4.8 23.4
09:45 1027 30.33 857 25.31 5 40.9 51 -4.3 24.2
09:50 1027 30.33 857 25.31 4.8 40.7 51 -4.4 24.1
09:55 1027 30.33 857 25.31 5 41 50 -4.5 23.9
10:00 1027 30.33 857 25.31 5.4 41.7 49 -4.5 23.8
10:05 1027 30.33 857 25.31 5.8 42.5 47 -4.6 23.7
10:10 1027 30.33 857 25.31 5.6 42.1 49 -4.2 24.5
10:15 1027 30.33 857 25.31 6 42.7 48 -4.3 24.3
10:20 1028 30.36 857 25.31 6.1 42.9 48 -4.1 24.6
10:25 1027 30.33 857 25.31 6.4 43.6 47 -4.1 24.5
10:30 1027 30.33 857 25.31 6.4 43.5 47 -4.1 24.5
10:35 1027 30.33 856 25.28 6.7 44.1 46 -4 24.7
10:40 1027 30.33 857 25.31 6.9 44.5 46 -4 24.8
10:45 1027 30.33 857 25.31 6.8 44.2 46 -4.1 24.7
10:50 1027 30.33 856 25.28 6.9 44.4 46 -4 24.7
10:55 1027 30.33 856 25.28 7.3 45.1 45 -3.8 25.2
11:00 1027 30.33 856 25.28 7.9 46.2 43 -3.9 24.9
11:05 1027 30.33 856 25.28 8 46.5 43 -3.7 25.4
11:10 1027 30.33 856 25.28 7.9 46.2 43 -3.8 25.1
11:15 1027 30.33 856 25.28 7.5 45.6 46 -3.3 26.1
11:20 1027 30.33 856 25.28 7.6 45.7 45 -3.7 25.4
11:25 1027 30.33 856 25.28 7.8 46.1 47 -2.8 27
11:30 1027 30.33 856 25.28 7.1 44.8 49 -3 26.7
11:35 1027 30.33 856 25.28 7.8 46.1 45 -3.4 25.9
11:40 1027 30.33 856 25.28 8.4 47 44 -3.2 26.2
11:45 1027 30.33 856 25.28 8.9 48 42 -3.3 26.1
11:50 1027 30.33 856 25.28 9 48.2 41 -3.4 25.9
11:55 1027 30.33 856 25.28 8 46.4 45 -3.2 26.2
12:00 1027 30.33 856 25.28 7.9 46.3 45 -3.2 26.3
12:05 1027 30.33 856 25.28 8.8 47.8 41 -3.6 25.5
12:10 1027 30.33 856 25.28 9.4 48.9 41 -3.1 26.4
12:15 1026 30.3 856 25.28 8.9 48.1 42 -3.3 26.1
12:20 1026 30.3 856 25.28 8.9 48.1 43 -3 26.6
12:25 1026 30.3 856 25.28 9.2 48.5 41 -3.2 26.2
12:30 1026 30.3 856 25.28 9.5 49.1 41 -3 26.6
12:35 1026 30.3 855 25.25 9.2 48.6 42 -3.2 26.3
12:40 1026 30.3 855 25.25 9.3 48.8 42 -3 26.5
12:45 1026 30.3 855 25.25 9.7 49.5 40 -3.1 26.4
12:50 1026 30.3 855 25.25 10.1 50.2 38 -3.5 25.7
12:55 1026 30.3 855 25.25 10.2 50.4 38 -3.5 25.7
13:00 1026 30.3 855 25.25 10.1 50.1 38 -3.7 25.4
13:05 1026 30.3 855 25.25 10.1 50.2 35 -4.5 23.9
13:10 1026 30.3 855 25.25 10.7 51.3 35 -4.2 24.5
13:15 1026 30.3 855 25.25 11.1 51.9 35 -3.9 25
13:20 1026 30.3 855 25.25 10.7 51.3 36 -3.7 25.4
13:25 1026 30.3 855 25.25 11 51.7 34 -4.3 24.3
13:30 1026 30.3 855 25.25 10.9 51.5 36 -3.8 25.2
13:35 1026 30.3 855 25.25 10.2 50.3 37 -3.8 25.2
13:40 1026 30.3 855 25.25 10.5 50.9 37 -3.7 25.3
13:45 1026 30.3 855 25.25 11.1 52 36 -3.2 26.3
13:50 1026 30.3 855 25.25 11.3 52.4 35 -3.4 25.9
13:55 1026 30.3 855 25.25 11.2 52.1 36 -3.2 26.2
14:00 1026 30.3 855 25.25 10.9 51.6 35 -4 24.9
14:05 1026 30.3 855 25.25 11.2 52.1 36 -3.1 26.4
14:10 1026 30.3 855 25.25 10.9 51.6 39 -2.6 27.3
14:15 1026 30.3 855 25.25 10.9 51.6 38 -3 26.7
14:20 1026 30.3 855 25.25 11.6 52.9 36 -3 26.5
14:25 1026 30.3 855 25.25 11.6 52.9 34 -3.5 25.7
14:30 1026 30.3 855 25.25 11.7 53.1 34 -3.5 25.8
14:35 1026 30.3 855 25.25 11.3 52.4 35 -3.6 25.4
14:40 1026 30.3 855 25.25 11 51.8 36 -3.5 25.6
14:45 1026 30.3 855 25.25 10.6 51.1 38 -3.2 26.2
14:50 1026 30.3 855 25.25 10.5 50.8 40 -2.6 27.3
14:55 1026 30.3 855 25.25 10.6 51 40 -2.6 27.3
15:00 1026 30.3 855 25.25 10.8 51.4 38 -2.9 26.8
15:05 1026 30.3 855 25.25 10.9 51.6 39 -2.6 27.3
15:10 1026 30.3 855 25.25 10.5 50.9 42 -1.8 28.7
15:15 1026 30.3 855 25.25 10 50.1 43 -1.9 28.5
15:20 1026 30.3 855 25.25 10.1 50.1 41 -2.6 27.3
15:25 1026 30.3 855 25.25 10.6 51.1 40 -2.4 27.7
15:30 1026 30.3 855 25.25 10.9 51.6 39 -2.5 27.5
15:35 1026 30.3 855 25.25 10.9 51.7 38 -2.8 26.9
15:40 1026 30.3 855 25.25 10.8 51.4 39 -2.7 27.2
15:45 1026 30.3 855 25.25 10.8 51.4 40 -2.3 27.8
15:50 1026 30.3 855 25.25 10.4 50.8 40 -2.4 27.6
15:55 1026 30.3 855 25.25 10.2 50.3 41 -2.4 27.6
16:00 1026 30.3 855 25.25 10.1 50.1 42 -2.2 28.1
16:05 1026 30.3 855 25.25 9.8 49.6 43 -2.3 27.9
16:10 1026 30.3 855 25.25 9.7 49.5 44 -2 28.4
16:15 1026 30.3 855 25.25 8.8 47.8 46 -2 28.3
16:20 1026 30.3 855 25.25 8.5 47.2 46 -2.5 27.5
16:25 1026 30.3 855 25.25 8.3 47 44 -3.1 26.3
16:30 1026 30.3 855 25.25 7.9 46.2 45 -3.4 25.8
16:35 1026 30.3 855 25.25 8 46.3 44 -3.5 25.7
16:40 1026 30.3 855 25.25 8.2 46.7 44 -3.5 25.8
16:45 1026 30.3 855 25.25 7.8 46.1 46 -3 26.6
16:50 1026 30.3 855 25.25 7.2 45 49 -2.8 26.9
16:55 1026 30.3 855 25.25 6.8 44.2 51 -2.8 27
17:00 1026 30.3 855 25.25 6.7 44.1 50 -2.9 26.8
17:05 1026 30.3 855 25.25 6.9 44.5 49 -2.9 26.7
17:10 1026 30.3 855 25.25 6.8 44.3 52 -2.4 27.6
17:15 1026 30.3 856 25.28 5.7 42.2 56 -2.4 27.6
17:20 1026 30.3 856 25.28 5.6 42.1 54 -2.9 26.8
17:25 1026 30.3 856 25.28 5.6 42 55 -2.7 27.2
17:30 1026 30.3 856 25.28 5.2 41.4 56 -2.8 27
17:35 1027 30.33 856 25.28 5.4 41.7 55 -3 26.6
17:40 1026 30.3 856 25.28 5.9 42.6 53 -3 26.6
17:45 1026 30.3 856 25.28 5.6 42.2 55 -2.8 27
17:50 1027 30.33 856 25.28 4.1 39.5 61 -2.8 27
17:55 1027 30.33 856 25.28 3.4 38 61 -3.4 26
18:00 1026 30.3 856 25.28 3.4 38.2 60 -3.6 25.5
18:05 1026 30.3 856 25.28 3.5 38.4 60 -3.5 25.7
18:10 1026 30.3 856 25.28 3.6 38.4 58 -3.8 25.1
18:15 1027 30.33 856 25.28 3 37.5 63 -3.3 26.1
18:20 1027 30.33 856 25.28 3.2 37.7 58 -4.3 24.2
18:25 1027 30.33 856 25.28 4.1 39.3 57 -3.7 25.3
18:30 1027 30.33 856 25.28 4 39.1 57 -3.8 25.1
18:35 1027 30.33 856 25.28 4.2 39.6 56 -3.8 25.1
18:40 1027 30.33 856 25.28 4.6 40.2 54 -4 24.9
18:45 1027 30.33 856 25.28 4.5 40.1 54 -3.9 24.9
18:50 1027 30.33 856 25.28 4.5 40.1 56 -3.5 25.6
18:55 1027 30.33 856 25.28 4.2 39.6 58 -3.4 25.8
19:00 1027 30.33 856 25.28 4.2 39.5 57 -3.5 25.6
19:05 1027 30.33 856 25.28 4.2 39.5 57 -3.5 25.7
19:10 1027 30.33 856 25.28 3.3 38 59 -4 24.8
19:15 1027 30.33 856 25.28 4.2 39.6 53 -4.6 23.7
19:20 1027 30.33 856 25.28 4.9 40.8 50 -4.5 23.8
19:25 1027 30.33 856 25.28 4.7 40.5 51 -4.5 23.9
19:30 1027 30.33 856 25.28 5.2 41.4 49 -4.7 23.5
19:35 1027 30.33 856 25.28 5.7 42.2 50 -4 24.7
19:40 1027 30.33 856 25.28 5.4 41.7 52 -3.7 25.3
19:45 1027 30.33 856 25.28 5 41 55 -3.4 25.9
19:50 1027 30.33 856 25.28 4.3 39.8 56 -3.6 25.5
19:55 1027 30.33 856 25.28 3.7 38.7 56 -4.3 24.3
20:00 1027 30.33 856 25.28 4 39.3 54 -4.4 24.2
20:05 1027 30.33 856 25.28 3.8 38.9 56 -4.2 24.4
20:10 1027 30.33 856 25.28 3.7 38.6 55 -4.5 23.8
20:15 1027 30.33 856 25.28 4.1 39.4 54 -4.5 24
20:20 1027 30.33 857 25.31 4.2 39.5 53 -4.5 23.9
20:25 1027 30.33 857 25.31 4.2 39.6 54 -4.4 24.2
20:30 1028 30.36 857 25.31 4.4 39.8 53 -4.5 23.9
20:35 1028 30.36 857 25.31 4.4 39.9 53 -4.3 24.2
20:40 1028 30.36 857 25.31 4.2 39.5 57 -3.5 25.7
20:45 1028 30.36 857 25.31 3.7 38.7 61 -3.2 26.3
20:50 1028 30.36 857 25.31 3.5 38.3 61 -3.4 26
20:55 1028 30.36 857 25.31 3.3 38 61 -3.4 25.8
21:00 1028 30.36 857 25.31 3.4 38.2 60 -3.6 25.5
21:05 1028 30.36 857 25.31 3.4 38.1 61 -3.4 25.9
21:10 1028 30.36 857 25.31 3.2 37.8 62 -3.3 26
21:15 1028 30.36 857 25.31 3.2 37.8 63 -3.2 26.2
21:20 1028 30.36 857 25.31 2.4 36.4 67 -3.1 26.4
21:25 1028 30.36 857 25.31 1.6 34.9 69 -3.4 25.9
21:30 1028 30.36 857 25.31 1.7 35 69 -3.4 25.9
21:35 1028 30.36 857 25.31 2 35.5 67 -3.5 25.6
21:40 1028 30.36 857 25.31 2.7 36.9 64 -3.4 25.8
21:45 1028 30.36 857 25.31 3 37.4 63 -3.3 26.1
21:50 1028 30.36 857 25.31 3.1 37.6 63 -3.3 26
21:55 1028 30.36 857 25.31 3.2 37.7 61 -3.6 25.5
22:00 1028 30.36 857 25.31 3.5 38.2 59 -3.8 25.2
22:05 1028 30.36 857 25.31 3.7 38.7 59 -3.4 25.8
22:10 1028 30.36 857 25.31 3.5 38.2 61 -3.3 26.1
22:15 1028 30.36 857 25.31 3.3 37.9 60 -3.7 25.3
22:20 1028 30.36 857 25.31 3.9 38.9 56 -4 24.7
22:25 1028 30.36 857 25.31 4 39.3 56 -3.9 25.1
22:30 1028 30.36 857 25.31 3.9 39 57 -3.9 25
22:35 1028 30.36 857 25.31 3.7 38.7 58 -3.8 25.1
22:40 1028 30.36 857 25.31 3.6 38.4 58 -4 24.9
22:45 1028 30.36 857 25.31 3.7 38.7 57 -3.9 25
22:50 1028 30.36 857 25.31 3.9 39.1 56 -4 24.7
22:55 1028 30.36 857 25.31 4.1 39.5 56 -3.8 25.1
23:00 1028 30.36 857 25.31 4.1 39.4 57 -3.6 25.6
23:05 1028 30.36 857 25.31 3.8 38.8 59 -3.6 25.5
23:10 1028 30.36 857 25.31 3.6 38.5 59 -3.6 25.5
23:15 1028 30.36 857 25.31 3.5 38.4 58 -3.9 25
23:20 1028 30.36 857 25.31 3.6 38.4 58 -3.9 25
23:25 1028 30.36 857 25.31 3.7 38.6 58 -3.9 24.9
23:30 1028 30.36 857 25.31 3.8 38.8 57 -4 24.8
23:35 1028 30.36 857 25.31 3.8 38.8 58 -3.9 25.1
23:40 1028 30.36 857 25.31 3.7 38.6 57 -4 24.8
23:45 1028 30.36 857 25.31 3.9 38.9 58 -3.8 25.2
23:50 1028 30.36 857 25.31 4 39.2 56 -3.9 25
23:55 1028 30.36 857 25.31 4 39.2 58 -3.6 25.6
24:00 1028 30.36 857 25.31 3.2 37.8 62 -3.5 25.8